TAM3209 SBUL-SBGR
Flight info
| Callsign | TAM3209 |
|---|---|
| Flight time | 1h 11m |
| Altitude | 34000 |
| Route | ASTOB DCT UPONA DCT OBLUG/N0457F350 UZ42 ZARES |
| Aircraft | A320/M-SDE3FGHIRWY/LB1 |
Departure
| Time | 2026-04-22 15:52 |
|---|---|
| Airport | Ten. Cel. Aviador César Bombonato Airport (SBUL) |
Arrival
| Time | 2026-04-22 17:03 |
|---|---|
| Airport | São Paulo/Guarulhos–Governor André Franco Montoro International Airport (SBGR) |
| Time | Latitude | Longitude | Altitude | Speed | Heading |
|---|---|---|---|---|---|
| 2026-04-22 15:45 | -18.88946 | -48.23002 | 3100 ft | 4 kts | 249° |
| 2026-04-22 15:45 | -18.88934 | -48.22977 | 3100 ft | 4 kts | 232° |
| 2026-04-22 15:45 | -18.88915 | -48.22957 | 3100 ft | 4 kts | 207° |
| 2026-04-22 15:45 | -18.88905 | -48.22952 | 3101 ft | 1 kts | 202° |
| 2026-04-22 15:48 | -18.88909 | -48.22954 | 3101 ft | 3 kts | 202° |
| 2026-04-22 15:48 | -18.88950 | -48.22972 | 3100 ft | 10 kts | 202° |
| 2026-04-22 15:48 | -18.89012 | -48.22998 | 3100 ft | 5 kts | 196° |
| 2026-04-22 15:48 | -18.89036 | -48.22975 | 3101 ft | 6 kts | 117° |
| 2026-04-22 15:49 | -18.89056 | -48.22927 | 3103 ft | 9 kts | 116° |
| 2026-04-22 15:49 | -18.89112 | -48.22920 | 3102 ft | 9 kts | 198° |
| 2026-04-22 15:49 | -18.89174 | -48.22918 | 3100 ft | 9 kts | 171° |
| 2026-04-22 15:49 | -18.89219 | -48.22952 | 3098 ft | 10 kts | 300° |
| 2026-04-22 15:50 | -18.89187 | -48.22957 | 3099 ft | 0 kts | 21° |
| 2026-04-22 15:51 | -18.89183 | -48.22955 | 3099 ft | 5 kts | 21° |
| 2026-04-22 15:51 | -18.88920 | -48.22838 | 3104 ft | 80 kts | 23° |
| 2026-04-22 15:51 | -18.88194 | -48.22518 | 3109 ft | 143 kts | 23° |
| 2026-04-22 15:52 | -18.87166 | -48.22073 | 3566 ft | 162 kts | 24° |
| 2026-04-22 15:52 | -18.86069 | -48.21891 | 4547 ft | 165 kts | 347° |
| 2026-04-22 15:52 | -18.85093 | -48.22517 | 5337 ft | 171 kts | 312° |
| 2026-04-22 15:52 | -18.84577 | -48.23737 | 5529 ft | 199 kts | 274° |
| 2026-04-22 15:53 | -18.84988 | -48.25181 | 5728 ft | 223 kts | 231° |
| 2026-04-22 15:53 | -18.86281 | -48.26213 | 5908 ft | 247 kts | 206° |
| 2026-04-22 15:53 | -18.87935 | -48.26970 | 6288 ft | 272 kts | 200° |
| 2026-04-22 15:53 | -18.89765 | -48.27688 | 6849 ft | 286 kts | 199° |
| 2026-04-22 15:54 | -18.91546 | -48.28642 | 7599 ft | 291 kts | 220° |
| 2026-04-22 15:54 | -18.92876 | -48.30260 | 8398 ft | 294 kts | 235° |
| 2026-04-22 15:54 | -18.94051 | -48.32028 | 9276 ft | 295 kts | 235° |
| 2026-04-22 15:54 | -18.95215 | -48.33782 | 10090 ft | 296 kts | 234° |
| 2026-04-22 15:55 | -18.96412 | -48.35588 | 10619 ft | 309 kts | 234° |
| 2026-04-22 15:55 | -18.97693 | -48.37517 | 11142 ft | 332 kts | 236° |
| 2026-04-22 15:55 | -18.99046 | -48.39555 | 11690 ft | 343 kts | 236° |
| 2026-04-22 15:55 | -19.00429 | -48.41634 | 12433 ft | 349 kts | 236° |
| 2026-04-22 15:56 | -19.01849 | -48.43766 | 12897 ft | 360 kts | 233° |
| 2026-04-22 15:56 | -19.03309 | -48.45951 | 13434 ft | 366 kts | 233° |
| 2026-04-22 15:56 | -19.04787 | -48.48160 | 14061 ft | 370 kts | 233° |
| 2026-04-22 15:56 | -19.06280 | -48.50395 | 14665 ft | 373 kts | 233° |
| 2026-04-22 15:57 | -19.07784 | -48.52649 | 15264 ft | 377 kts | 234° |
| 2026-04-22 15:57 | -19.09295 | -48.54926 | 15864 ft | 379 kts | 234° |
| 2026-04-22 15:57 | -19.10814 | -48.57219 | 16436 ft | 382 kts | 234° |
| 2026-04-22 15:57 | -19.12343 | -48.59526 | 16985 ft | 385 kts | 234° |
| 2026-04-22 15:58 | -19.13889 | -48.61850 | 17520 ft | 387 kts | 233° |
| 2026-04-22 15:58 | -19.15702 | -48.63961 | 18029 ft | 389 kts | 220° |
| 2026-04-22 15:58 | -19.17920 | -48.65610 | 18522 ft | 392 kts | 208° |
| 2026-04-22 15:58 | -19.20441 | -48.66706 | 18987 ft | 394 kts | 195° |
| 2026-04-22 15:59 | -19.23144 | -48.67208 | 19432 ft | 397 kts | 186° |
| 2026-04-22 15:59 | -19.25902 | -48.67490 | 19907 ft | 399 kts | 186° |
| 2026-04-22 15:59 | -19.28635 | -48.67768 | 20370 ft | 401 kts | 185° |
| 2026-04-22 15:59 | -19.31424 | -48.68053 | 20785 ft | 404 kts | 186° |
| 2026-04-22 16:00 | -19.34233 | -48.68344 | 21191 ft | 407 kts | 186° |
| 2026-04-22 16:00 | -19.37064 | -48.68638 | 21597 ft | 410 kts | 186° |
| 2026-04-22 16:00 | -19.39909 | -48.68933 | 22024 ft | 412 kts | 186° |
| 2026-04-22 16:00 | -19.42769 | -48.69228 | 22399 ft | 414 kts | 185° |
| 2026-04-22 16:01 | -19.45646 | -48.69525 | 22749 ft | 417 kts | 186° |
| 2026-04-22 16:01 | -19.48544 | -48.69826 | 23111 ft | 420 kts | 186° |
| 2026-04-22 16:01 | -19.51456 | -48.70129 | 23468 ft | 422 kts | 186° |
| 2026-04-22 16:01 | -19.54386 | -48.70434 | 23827 ft | 424 kts | 186° |
| 2026-04-22 16:02 | -19.57330 | -48.70741 | 24190 ft | 426 kts | 186° |
| 2026-04-22 16:02 | -19.60290 | -48.71049 | 24537 ft | 428 kts | 186° |
| 2026-04-22 16:02 | -19.63258 | -48.71357 | 24889 ft | 429 kts | 185° |
| 2026-04-22 16:02 | -19.66237 | -48.71666 | 25192 ft | 431 kts | 185° |
| 2026-04-22 16:03 | -19.69234 | -48.71977 | 25497 ft | 434 kts | 185° |
| 2026-04-22 16:03 | -19.72243 | -48.72290 | 25790 ft | 436 kts | 185° |
| 2026-04-22 16:03 | -19.75266 | -48.72605 | 26081 ft | 438 kts | 185° |
| 2026-04-22 16:03 | -19.78304 | -48.72922 | 26371 ft | 440 kts | 185° |
| 2026-04-22 16:04 | -19.81359 | -48.73241 | 26661 ft | 442 kts | 185° |
| 2026-04-22 16:04 | -19.84422 | -48.73558 | 26943 ft | 443 kts | 185° |
| 2026-04-22 16:04 | -19.87496 | -48.73876 | 27246 ft | 445 kts | 185° |
| 2026-04-22 16:04 | -19.90580 | -48.74197 | 27528 ft | 446 kts | 185° |
| 2026-04-22 16:05 | -19.92630 | -48.74412 | 27705 ft | 448 kts | 185° |
| 2026-04-22 16:05 | -19.96788 | -48.74849 | 28054 ft | 450 kts | 185° |
| 2026-04-22 16:05 | -19.99912 | -48.75178 | 28309 ft | 452 kts | 185° |
| 2026-04-22 16:05 | -20.03056 | -48.75503 | 28567 ft | 454 kts | 185° |
| 2026-04-22 16:06 | -20.06205 | -48.75827 | 28824 ft | 455 kts | 186° |
| 2026-04-22 16:06 | -20.09361 | -48.76157 | 29072 ft | 457 kts | 186° |
| 2026-04-22 16:06 | -20.12533 | -48.76491 | 29302 ft | 458 kts | 186° |
| 2026-04-22 16:06 | -20.15713 | -48.76826 | 29524 ft | 460 kts | 186° |
| 2026-04-22 16:07 | -20.18864 | -48.77158 | 29745 ft | 462 kts | 186° |
| 2026-04-22 16:07 | -20.22105 | -48.77497 | 29988 ft | 462 kts | 186° |
| 2026-04-22 16:07 | -20.25265 | -48.77829 | 30318 ft | 461 kts | 186° |
| 2026-04-22 16:07 | -20.28456 | -48.78164 | 30645 ft | 461 kts | 186° |
| 2026-04-22 16:08 | -20.31643 | -48.78498 | 30979 ft | 459 kts | 186° |
| 2026-04-22 16:08 | -20.34821 | -48.78831 | 31285 ft | 458 kts | 186° |
| 2026-04-22 16:08 | -20.37994 | -48.79163 | 31612 ft | 457 kts | 186° |
| 2026-04-22 16:08 | -20.41157 | -48.79496 | 31933 ft | 456 kts | 186° |
| 2026-04-22 16:09 | -20.44317 | -48.79828 | 32246 ft | 456 kts | 186° |
| 2026-04-22 16:09 | -20.47468 | -48.80159 | 32564 ft | 455 kts | 186° |
| 2026-04-22 16:09 | -20.50617 | -48.80491 | 32873 ft | 454 kts | 186° |
| 2026-04-22 16:09 | -20.53758 | -48.80820 | 33193 ft | 453 kts | 186° |
| 2026-04-22 16:10 | -20.56892 | -48.81147 | 33508 ft | 452 kts | 187° |
| 2026-04-22 16:10 | -20.60024 | -48.81475 | 33816 ft | 451 kts | 187° |
| 2026-04-22 16:10 | -20.62091 | -48.81692 | 34001 ft | 451 kts | 187° |
| 2026-04-22 16:10 | -20.66266 | -48.82131 | 34092 ft | 450 kts | 187° |
| 2026-04-22 16:11 | -20.72476 | -48.82899 | 34091 ft | 449 kts | 189° |
| 2026-04-22 16:11 | -20.78651 | -48.83928 | 34080 ft | 449 kts | 191° |
| 2026-04-22 16:12 | -20.84814 | -48.84990 | 34089 ft | 448 kts | 190° |
| 2026-04-22 16:12 | -20.90980 | -48.85999 | 34089 ft | 448 kts | 190° |
| 2026-04-22 16:13 | -20.97113 | -48.86963 | 34090 ft | 449 kts | 189° |
| 2026-04-22 16:13 | -21.03289 | -48.87934 | 34094 ft | 448 kts | 190° |
| 2026-04-22 16:14 | -21.09457 | -48.88919 | 34088 ft | 448 kts | 190° |
| 2026-04-22 16:14 | -21.15621 | -48.89913 | 34091 ft | 448 kts | 190° |
| 2026-04-22 16:15 | -21.21840 | -48.90229 | 34093 ft | 451 kts | 175° |
| 2026-04-22 16:15 | -21.27952 | -48.88613 | 34090 ft | 454 kts | 165° |
| 2026-04-22 16:16 | -21.33997 | -48.86677 | 34085 ft | 453 kts | 166° |
| 2026-04-22 16:16 | -21.40041 | -48.84760 | 34079 ft | 453 kts | 166° |
| 2026-04-22 16:17 | -21.46084 | -48.82841 | 34081 ft | 453 kts | 166° |
| 2026-04-22 16:17 | -21.52125 | -48.80907 | 34089 ft | 453 kts | 166° |
| 2026-04-22 16:18 | -21.58167 | -48.78977 | 34096 ft | 453 kts | 166° |
| 2026-04-22 16:18 | -21.64206 | -48.77061 | 34099 ft | 452 kts | 166° |
| 2026-04-22 16:19 | -21.70242 | -48.75140 | 34098 ft | 452 kts | 166° |
| 2026-04-22 16:19 | -21.76226 | -48.73224 | 34101 ft | 451 kts | 166° |
| 2026-04-22 16:20 | -21.82242 | -48.71301 | 34103 ft | 451 kts | 166° |
| 2026-04-22 16:20 | -21.88252 | -48.69381 | 34103 ft | 450 kts | 166° |
| 2026-04-22 16:21 | -21.94258 | -48.67459 | 34104 ft | 450 kts | 166° |
| 2026-04-22 16:21 | -21.99279 | -48.65844 | 34101 ft | 449 kts | 166° |
| 2026-04-22 16:22 | -22.09228 | -48.62643 | 34100 ft | 449 kts | 167° |
| 2026-04-22 16:23 | -22.17188 | -48.60090 | 34103 ft | 448 kts | 167° |
| 2026-04-22 16:23 | -22.23163 | -48.58169 | 34101 ft | 448 kts | 167° |
| 2026-04-22 16:24 | -22.32115 | -48.55282 | 34100 ft | 447 kts | 167° |
| 2026-04-22 16:25 | -22.38081 | -48.53357 | 34102 ft | 447 kts | 167° |
| 2026-04-22 16:25 | -22.47032 | -48.50472 | 34104 ft | 448 kts | 167° |
| 2026-04-22 16:26 | -22.53005 | -48.48539 | 34106 ft | 448 kts | 166° |
| 2026-04-22 16:26 | -22.55895 | -48.47235 | 34105 ft | 453 kts | 155° |
| 2026-04-22 16:26 | -22.58535 | -48.45334 | 34105 ft | 460 kts | 144° |
| 2026-04-22 16:27 | -22.60815 | -48.42887 | 34106 ft | 466 kts | 133° |
| 2026-04-22 16:27 | -22.62638 | -48.39969 | 34104 ft | 472 kts | 121° |
| 2026-04-22 16:27 | -22.64998 | -48.33285 | 34102 ft | 477 kts | 112° |
| 2026-04-22 16:28 | -22.67152 | -48.26479 | 34102 ft | 478 kts | 112° |
| 2026-04-22 16:28 | -22.69312 | -48.19676 | 34104 ft | 478 kts | 112° |
| 2026-04-22 16:29 | -22.71470 | -48.12863 | 34108 ft | 479 kts | 112° |
| 2026-04-22 16:29 | -22.73622 | -48.06033 | 34112 ft | 479 kts | 112° |
| 2026-04-22 16:30 | -22.75668 | -47.99205 | 34116 ft | 480 kts | 110° |
| 2026-04-22 16:30 | -22.78075 | -47.92522 | 34122 ft | 474 kts | 121° |
| 2026-04-22 16:31 | -22.81098 | -47.86177 | 34128 ft | 474 kts | 122° |
| 2026-04-22 16:31 | -22.84159 | -47.79861 | 34126 ft | 473 kts | 122° |
| 2026-04-22 16:32 | -22.87222 | -47.73542 | 34124 ft | 473 kts | 122° |
| 2026-04-22 16:32 | -22.90272 | -47.67210 | 34124 ft | 474 kts | 122° |
| 2026-04-22 16:33 | -22.93319 | -47.60872 | 34124 ft | 474 kts | 122° |
| 2026-04-22 16:33 | -22.96362 | -47.54529 | 34123 ft | 474 kts | 122° |
| 2026-04-22 16:34 | -22.99403 | -47.48182 | 34125 ft | 474 kts | 122° |
| 2026-04-22 16:34 | -23.02452 | -47.41823 | 34131 ft | 475 kts | 122° |
| 2026-04-22 16:35 | -23.05505 | -47.35455 | 34137 ft | 476 kts | 122° |
| 2026-04-22 16:35 | -23.08549 | -47.29082 | 34140 ft | 476 kts | 122° |
| 2026-04-22 16:36 | -23.11952 | -47.22969 | 34144 ft | 471 kts | 130° |
| 2026-04-22 16:36 | -23.15797 | -47.17235 | 34143 ft | 469 kts | 131° |
| 2026-04-22 16:37 | -23.19681 | -47.11538 | 34141 ft | 469 kts | 131° |
| 2026-04-22 16:37 | -23.23483 | -47.05773 | 34137 ft | 469 kts | 130° |
| 2026-04-22 16:38 | -23.27137 | -46.99942 | 34131 ft | 470 kts | 128° |
| 2026-04-22 16:38 | -23.30683 | -46.93898 | 34127 ft | 472 kts | 126° |
| 2026-04-22 16:39 | -23.33993 | -46.87772 | 34128 ft | 474 kts | 124° |
| 2026-04-22 16:39 | -23.37077 | -46.81424 | 34127 ft | 476 kts | 121° |
| 2026-04-22 16:40 | -23.39827 | -46.74848 | 34126 ft | 479 kts | 117° |
| 2026-04-22 16:41 | -23.42889 | -46.64423 | 34128 ft | 485 kts | 107° |
| 2026-04-22 16:41 | -23.43963 | -46.60986 | 34127 ft | 473 kts | 124° |
| 2026-04-22 16:41 | -23.45585 | -46.57948 | 34139 ft | 458 kts | 122° |
| 2026-04-22 16:41 | -23.46568 | -46.54680 | 34136 ft | 455 kts | 100° |
| 2026-04-22 16:42 | -23.46422 | -46.51276 | 34134 ft | 449 kts | 78° |
| 2026-04-22 16:42 | -23.45367 | -46.48109 | 34135 ft | 443 kts | 66° |
| 2026-04-22 16:42 | -23.44100 | -46.45067 | 34128 ft | 438 kts | 77° |
| 2026-04-22 16:42 | -23.43710 | -46.41848 | 34126 ft | 424 kts | 101° |
| 2026-04-22 16:43 | -23.44434 | -46.38823 | 34126 ft | 406 kts | 125° |
| 2026-04-22 16:43 | -23.46107 | -46.36458 | 34127 ft | 387 kts | 148° |
| 2026-04-22 16:43 | -23.48205 | -46.34702 | 34132 ft | 386 kts | 150° |
| 2026-04-22 16:44 | -23.52525 | -46.31182 | 34133 ft | 388 kts | 150° |
| 2026-04-22 16:44 | -23.54562 | -46.29223 | 34130 ft | 397 kts | 136° |
| 2026-04-22 16:44 | -23.56341 | -46.26908 | 34127 ft | 395 kts | 143° |
| 2026-04-22 16:44 | -23.58541 | -46.25302 | 34120 ft | 373 kts | 167° |
| 2026-04-22 16:45 | -23.61030 | -46.24816 | 34123 ft | 359 kts | 187° |
| 2026-04-22 16:45 | -23.63466 | -46.25212 | 34126 ft | 352 kts | 201° |
| 2026-04-22 16:45 | -23.65676 | -46.26303 | 34124 ft | 348 kts | 215° |
| 2026-04-22 16:45 | -23.67508 | -46.28004 | 34124 ft | 347 kts | 230° |
| 2026-04-22 16:46 | -23.68809 | -46.30215 | 34123 ft | 349 kts | 245° |
| 2026-04-22 16:46 | -23.69435 | -46.32733 | 34122 ft | 356 kts | 261° |
| 2026-04-22 16:46 | -23.69333 | -46.35455 | 34122 ft | 365 kts | 276° |
| 2026-04-22 16:47 | -23.68896 | -46.40883 | 34022 ft | 354 kts | 253° |
| 2026-04-22 16:47 | -23.69750 | -46.43389 | 33959 ft | 357 kts | 237° |
| 2026-04-22 16:47 | -23.71313 | -46.45517 | 33879 ft | 365 kts | 221° |
| 2026-04-22 16:47 | -23.73475 | -46.47036 | 33805 ft | 378 kts | 204° |
| 2026-04-22 16:48 | -23.76073 | -46.47721 | 33732 ft | 395 kts | 186° |
| 2026-04-22 16:48 | -23.78864 | -46.47365 | 33656 ft | 417 kts | 167° |
| 2026-04-22 16:48 | -23.81494 | -46.45851 | 33585 ft | 441 kts | 148° |
| 2026-04-22 16:49 | -23.86199 | -46.41340 | 33005 ft | 463 kts | 134° |
| 2026-04-22 16:49 | -23.87860 | -46.38256 | 31196 ft | 487 kts | 115° |
| 2026-04-22 16:49 | -23.88542 | -46.34550 | 29295 ft | 509 kts | 95° |
| 2026-04-22 16:49 | -23.88098 | -46.30665 | 27384 ft | 524 kts | 75° |
| 2026-04-22 16:50 | -23.86557 | -46.27042 | 25398 ft | 531 kts | 55° |
| 2026-04-22 16:50 | -23.84029 | -46.24146 | 23801 ft | 523 kts | 33° |
| 2026-04-22 16:50 | -23.80883 | -46.22370 | 22654 ft | 500 kts | 14° |
| 2026-04-22 16:50 | -23.77543 | -46.21692 | 21393 ft | 481 kts | 359° |
| 2026-04-22 16:51 | -23.74318 | -46.21961 | 20140 ft | 464 kts | 344° |
| 2026-04-22 16:51 | -23.71339 | -46.23110 | 18850 ft | 448 kts | 330° |
| 2026-04-22 16:51 | -23.68638 | -46.24744 | 17532 ft | 440 kts | 328° |
| 2026-04-22 16:51 | -23.66007 | -46.26395 | 16248 ft | 433 kts | 328° |
| 2026-04-22 16:52 | -23.63431 | -46.28043 | 14971 ft | 426 kts | 328° |
| 2026-04-22 16:52 | -23.60901 | -46.29673 | 13694 ft | 419 kts | 328° |
| 2026-04-22 16:52 | -23.58425 | -46.31265 | 12962 ft | 402 kts | 328° |
| 2026-04-22 16:52 | -23.56075 | -46.32762 | 12460 ft | 380 kts | 329° |
| 2026-04-22 16:53 | -23.53844 | -46.34174 | 12209 ft | 365 kts | 329° |
| 2026-04-22 16:53 | -23.51660 | -46.35552 | 11958 ft | 361 kts | 329° |
| 2026-04-22 16:53 | -23.49490 | -46.36920 | 11737 ft | 358 kts | 329° |
| 2026-04-22 16:53 | -23.47387 | -46.38243 | 11449 ft | 340 kts | 329° |
| 2026-04-22 16:54 | -23.45380 | -46.39505 | 11092 ft | 331 kts | 329° |
| 2026-04-22 16:54 | -23.43388 | -46.40761 | 10736 ft | 329 kts | 329° |
| 2026-04-22 16:54 | -23.41463 | -46.41974 | 10434 ft | 311 kts | 329° |
| 2026-04-22 16:54 | -23.39622 | -46.43135 | 10186 ft | 303 kts | 330° |
| 2026-04-22 16:55 | -23.37804 | -46.44282 | 10011 ft | 301 kts | 330° |
| 2026-04-22 16:55 | -23.35998 | -46.45422 | 9876 ft | 300 kts | 330° |
| 2026-04-22 16:55 | -23.34187 | -46.46565 | 9783 ft | 300 kts | 330° |
| 2026-04-22 16:55 | -23.32384 | -46.47700 | 9677 ft | 299 kts | 330° |
| 2026-04-22 16:56 | -23.30591 | -46.48829 | 9548 ft | 297 kts | 330° |
| 2026-04-22 16:56 | -23.28813 | -46.49948 | 9419 ft | 290 kts | 329° |
| 2026-04-22 16:56 | -23.27330 | -46.51273 | 9309 ft | 276 kts | 308° |
| 2026-04-22 16:56 | -23.26426 | -46.53086 | 9194 ft | 273 kts | 285° |
| 2026-04-22 16:57 | -23.26227 | -46.55118 | 9054 ft | 272 kts | 264° |
| 2026-04-22 16:57 | -23.26753 | -46.57118 | 8521 ft | 280 kts | 239° |
| 2026-04-22 16:57 | -23.27939 | -46.58708 | 8276 ft | 273 kts | 221° |
| 2026-04-22 16:57 | -23.29481 | -46.59891 | 7931 ft | 271 kts | 207° |
| 2026-04-22 16:58 | -23.30648 | -46.60431 | 7683 ft | 270 kts | 198° |
| 2026-04-22 16:58 | -23.33063 | -46.61268 | 6741 ft | 278 kts | 197° |
| 2026-04-22 16:58 | -23.34916 | -46.61914 | 6006 ft | 281 kts | 198° |
| 2026-04-22 16:58 | -23.36740 | -46.62557 | 5700 ft | 267 kts | 198° |
| 2026-04-22 16:59 | -23.38435 | -46.63157 | 5632 ft | 246 kts | 198° |
| 2026-04-22 16:59 | -23.40033 | -46.63720 | 5572 ft | 240 kts | 198° |
| 2026-04-22 16:59 | -23.41632 | -46.64226 | 5472 ft | 240 kts | 188° |
| 2026-04-22 16:59 | -23.43277 | -46.64172 | 5206 ft | 236 kts | 165° |
| 2026-04-22 17:00 | -23.44759 | -46.63453 | 4939 ft | 233 kts | 143° |
| 2026-04-22 17:00 | -23.46499 | -46.60674 | 4602 ft | 221 kts | 102° |
| 2026-04-22 17:00 | -23.46601 | -46.59055 | 4385 ft | 210 kts | 83° |
| 2026-04-22 17:01 | -23.46267 | -46.57569 | 4129 ft | 194 kts | 73° |
| 2026-04-22 17:01 | -23.45909 | -46.56239 | 3888 ft | 173 kts | 73° |
| 2026-04-22 17:01 | -23.45587 | -46.55040 | 3660 ft | 159 kts | 73° |
| 2026-04-22 17:01 | -23.45282 | -46.53908 | 3458 ft | 153 kts | 72° |
| 2026-04-22 17:02 | -23.44983 | -46.52809 | 3252 ft | 150 kts | 72° |
| 2026-04-22 17:02 | -23.44690 | -46.51725 | 3042 ft | 149 kts | 73° |
| 2026-04-22 17:02 | -23.44412 | -46.50644 | 2825 ft | 148 kts | 73° |
| 2026-04-22 17:02 | -23.44117 | -46.49574 | 2639 ft | 147 kts | 72° |
| 2026-04-22 17:03 | -23.43834 | -46.48518 | 2483 ft | 146 kts | 72° |
| 2026-04-22 17:03 | -23.43578 | -46.47591 | 2468 ft | 91 kts | 73° |
| 2026-04-22 17:03 | -23.43480 | -46.47236 | 2467 ft | 20 kts | 74° |
| 2026-04-22 17:03 | -23.43443 | -46.47086 | 2465 ft | 22 kts | 72° |
| 2026-04-22 17:04 | -23.43400 | -46.46983 | 2467 ft | 23 kts | 62° |
| 2026-04-22 17:04 | -23.43250 | -46.46806 | 2469 ft | 25 kts | 42° |
| 2026-04-22 17:04 | -23.43148 | -46.46712 | 2470 ft | 20 kts | 20° |
| 2026-04-22 17:04 | -23.43002 | -46.46744 | 2468 ft | 24 kts | 344° |
| 2026-04-22 17:05 | -23.42854 | -46.46791 | 2465 ft | 19 kts | 344° |
| 2026-04-22 17:05 | -23.42771 | -46.46855 | 2463 ft | 9 kts | 274° |
| 2026-04-22 17:05 | -23.42787 | -46.46906 | 2465 ft | 8 kts | 253° |
| 2026-04-22 17:05 | -23.42805 | -46.46979 | 2467 ft | 14 kts | 254° |
| 2026-04-22 17:06 | -23.42839 | -46.47105 | 2466 ft | 20 kts | 253° |
| 2026-04-22 17:06 | -23.42881 | -46.47256 | 2464 ft | 22 kts | 253° |
| 2026-04-22 17:06 | -23.42923 | -46.47416 | 2464 ft | 22 kts | 254° |
| 2026-04-22 17:06 | -23.42965 | -46.47577 | 2464 ft | 22 kts | 254° |
| 2026-04-22 17:07 | -23.43007 | -46.47731 | 2464 ft | 14 kts | 253° |
| 2026-04-22 17:07 | -23.43006 | -46.47808 | 2464 ft | 9 kts | 316° |
| 2026-04-22 17:07 | -23.42947 | -46.47826 | 2464 ft | 8 kts | 349° |
| 2026-04-22 17:07 | -23.42896 | -46.47837 | 2464 ft | 7 kts | 348° |
| 2026-04-22 17:08 | -23.42855 | -46.47846 | 2465 ft | 5 kts | 348° |
| 2026-04-22 17:08 | -23.42822 | -46.47854 | 2465 ft | 4 kts | 348° |
| 2026-04-22 17:08 | -23.42796 | -46.47860 | 2465 ft | 3 kts | 348° |
| 2026-04-22 17:08 | -23.42776 | -46.47864 | 2465 ft | 3 kts | 348° |
| 2026-04-22 17:09 | -23.42750 | -46.47870 | 2465 ft | 7 kts | 348° |
| 2026-04-22 17:09 | -23.42728 | -46.47884 | 2465 ft | 3 kts | 285° |
| 2026-04-22 17:09 | -23.42732 | -46.47910 | 2465 ft | 4 kts | 261° |
| 2026-04-22 17:09 | -23.42736 | -46.47953 | 2465 ft | 4 kts | 264° |
| 2026-04-22 17:10 | -23.42737 | -46.47965 | 2465 ft | 0 kts | 264° |